createdAt,value
2018-09-04T00:01:47.243Z,13.07
2018-09-04T00:04:14.801Z,12.96
2018-09-04T00:06:42.387Z,13.04
2018-09-04T00:09:10.551Z,12.98
2018-09-04T00:11:38.081Z,12.93
2018-09-04T00:14:06.043Z,12.85
2018-09-04T00:16:33.586Z,12.80
2018-09-04T00:19:01.145Z,12.94
2018-09-04T00:21:28.674Z,13.04
2018-09-04T00:23:56.210Z,12.90
2018-09-04T00:26:24.018Z,12.82
2018-09-04T00:28:51.570Z,12.78
2018-09-04T00:31:19.116Z,12.72
2018-09-04T00:33:46.650Z,12.66
2018-09-04T00:36:14.306Z,12.62
2018-09-04T00:38:41.881Z,12.61
2018-09-04T00:41:09.796Z,12.57
2018-09-04T00:43:37.319Z,12.66
2018-09-04T00:46:04.822Z,12.68
2018-09-04T00:48:32.630Z,12.84
2018-09-04T00:51:00.217Z,12.78
2018-09-04T00:53:27.753Z,12.71
2018-09-04T00:55:55.329Z,12.69
2018-09-04T00:58:22.882Z,12.51
2018-09-04T01:00:50.430Z,12.49
2018-09-04T01:03:17.939Z,12.29
2018-09-04T01:05:45.563Z,12.30
2018-09-04T01:08:13.197Z,12.34
2018-09-04T01:10:40.710Z,12.28
2018-09-04T01:13:08.259Z,12.15
2018-09-04T01:15:35.832Z,12.16
2018-09-04T01:18:03.414Z,12.31
2018-09-04T01:20:32.198Z,12.31
2018-09-04T01:22:59.726Z,12.18
2018-09-04T01:25:27.339Z,12.08
2018-09-04T01:27:54.891Z,11.99
2018-09-04T01:30:22.461Z,11.88
2018-09-04T01:32:49.988Z,11.95
2018-09-04T01:35:17.522Z,12.04
2018-09-04T01:37:45.048Z,12.03
2018-09-04T01:40:12.569Z,11.99
2018-09-04T01:42:40.145Z,12.03
2018-09-04T01:45:07.678Z,12.13
2018-09-04T01:47:35.218Z,12.09
2018-09-04T01:50:02.786Z,12.10
2018-09-04T01:52:30.305Z,12.04
2018-09-04T01:54:57.874Z,11.80
2018-09-04T01:57:25.385Z,11.71
2018-09-04T01:59:52.911Z,11.72
2018-09-04T02:02:20.449Z,11.69
2018-09-04T02:04:47.994Z,11.69
2018-09-04T02:07:15.898Z,11.66
2018-09-04T02:09:43.501Z,11.81
2018-09-04T02:12:11.077Z,11.78
2018-09-04T02:14:38.626Z,11.72
2018-09-04T02:17:06.169Z,11.66
2018-09-04T02:19:33.731Z,11.83
2018-09-04T02:22:01.255Z,11.85
2018-09-04T02:24:29.074Z,11.72
2018-09-04T02:26:56.597Z,11.69
2018-09-04T02:29:24.114Z,11.65
2018-09-04T02:31:51.988Z,11.67
2018-09-04T02:34:19.594Z,11.68
2018-09-04T02:36:47.107Z,11.57
2018-09-04T02:39:14.655Z,11.49
2018-09-04T02:41:42.196Z,11.49
2018-09-04T02:44:09.803Z,11.49
2018-09-04T02:46:37.519Z,11.48
2018-09-04T02:49:05.497Z,11.42
2018-09-04T02:51:33.379Z,11.37
2018-09-04T02:54:00.969Z,11.39
2018-09-04T02:56:28.531Z,11.46
2018-09-04T02:58:56.161Z,11.41
2018-09-04T03:01:23.663Z,11.40
2018-09-04T03:03:51.183Z,11.37
2018-09-04T03:06:18.706Z,11.32
2018-09-04T03:08:46.223Z,11.29
2018-09-04T03:11:13.750Z,11.28
2018-09-04T03:13:41.292Z,11.31
2018-09-04T03:16:08.856Z,11.29
2018-09-04T03:18:36.391Z,11.42
2018-09-04T03:21:03.901Z,11.27
2018-09-04T03:23:31.762Z,11.16
2018-09-04T03:25:59.290Z,11.31
2018-09-04T03:28:26.832Z,11.27
2018-09-04T03:30:54.748Z,11.20
2018-09-04T03:33:22.259Z,11.11
2018-09-04T03:35:49.778Z,10.98
2018-09-04T03:38:18.454Z,10.95
2018-09-04T03:40:46.046Z,10.92
2018-09-04T03:43:13.623Z,11.14
2018-09-04T03:45:41.145Z,11.16
2018-09-04T03:48:09.119Z,11.11
2018-09-04T03:50:37.519Z,11.07
2018-09-04T03:53:05.062Z,11.04
2018-09-04T03:55:32.892Z,11.04
2018-09-04T03:58:00.422Z,11.15
2018-09-04T04:00:27.948Z,11.20
2018-09-04T04:02:55.771Z,11.11
2018-09-04T04:05:23.294Z,11.09
2018-09-04T04:07:50.811Z,11.15
2018-09-04T04:10:18.659Z,11.20
2018-09-04T04:12:46.179Z,11.21
2018-09-04T04:15:13.722Z,11.02
2018-09-04T04:17:41.266Z,10.89
2018-09-04T04:20:08.938Z,10.83
2018-09-04T04:22:36.957Z,10.86
2018-09-04T04:25:04.786Z,10.96
2018-09-04T04:27:32.298Z,11.11
2018-09-04T04:29:59.896Z,11.20
2018-09-04T04:32:27.503Z,11.06
2018-09-04T04:34:55.089Z,10.88
2018-09-04T04:37:22.622Z,10.83
2018-09-04T04:39:50.141Z,10.79
2018-09-04T04:42:17.661Z,10.85
2018-09-04T04:44:45.175Z,10.84
2018-09-04T04:47:12.686Z,10.84
2018-09-04T04:49:41.292Z,10.82
2018-09-04T04:52:08.835Z,10.82
2018-09-04T04:54:36.376Z,10.88
2018-09-04T04:57:03.906Z,10.84
2018-09-04T04:59:31.431Z,10.82
2018-09-04T05:01:59.246Z,10.81
2018-09-04T05:04:26.775Z,10.77
2018-09-04T05:06:54.378Z,10.76
2018-09-04T05:09:21.994Z,10.77
2018-09-04T05:11:49.542Z,10.80
2018-09-04T05:14:17.089Z,10.78
2018-09-04T05:16:44.614Z,10.89
2018-09-04T05:19:12.151Z,10.93
2018-09-04T05:21:39.735Z,10.94
2018-09-04T05:24:07.266Z,10.96
2018-09-04T05:26:34.804Z,11.03
2018-09-04T05:29:02.325Z,11.14
2018-09-04T05:31:34.536Z,11.24
2018-09-04T05:34:02.154Z,11.36
2018-09-04T05:36:29.655Z,11.49
2018-09-04T05:38:57.151Z,11.83
2018-09-04T05:41:24.647Z,12.02
2018-09-04T05:43:57.289Z,12.19
2018-09-04T05:46:34.774Z,12.34
2018-09-04T05:49:02.544Z,12.69
2018-09-04T05:51:30.046Z,12.95
2018-09-04T05:53:57.765Z,13.17
2018-09-04T05:56:25.375Z,13.20
2018-09-04T05:58:52.932Z,13.38
2018-09-04T06:01:20.522Z,13.54
2018-09-04T06:03:48.049Z,13.67
2018-09-04T06:06:15.542Z,13.62
2018-09-04T06:08:43.090Z,13.89
2018-09-04T06:11:10.605Z,14.03
2018-09-04T06:13:38.122Z,14.16
2018-09-04T06:16:05.671Z,14.38
2018-09-04T06:18:33.209Z,14.70
2018-09-04T06:21:00.738Z,14.82
2018-09-04T06:23:28.283Z,15.00
2018-09-04T06:25:55.879Z,15.34
2018-09-04T06:28:23.390Z,15.29
2018-09-04T06:30:50.990Z,15.47
2018-09-04T06:33:18.475Z,15.69
2018-09-04T06:35:45.966Z,15.63
2018-09-04T06:38:13.468Z,16.02
2018-09-04T06:40:40.964Z,16.31
2018-09-04T06:43:08.470Z,16.72
2018-09-04T06:45:35.946Z,16.70
2018-09-04T06:48:03.419Z,17.02
2018-09-04T06:50:30.963Z,17.21
2018-09-04T06:52:58.458Z,17.39
2018-09-04T06:55:25.930Z,17.93
2018-09-04T06:57:53.527Z,18.32
2018-09-04T07:00:21.049Z,18.95
2018-09-04T07:02:48.558Z,18.91
2018-09-04T07:05:16.062Z,18.86
2018-09-04T07:07:43.606Z,19.45
2018-09-04T07:10:11.155Z,19.90
2018-09-04T07:12:39.033Z,20.79
2018-09-04T07:15:06.980Z,21.34
2018-09-04T07:17:34.472Z,20.88
2018-09-04T07:20:02.028Z,21.13
2018-09-04T07:22:29.558Z,22.02
2018-09-04T07:24:57.059Z,22.82
2018-09-04T07:27:24.570Z,23.66
2018-09-04T07:29:52.094Z,23.94
2018-09-04T07:32:19.587Z,24.01
2018-09-04T07:34:47.074Z,24.75
2018-09-04T07:37:14.647Z,24.77
2018-09-04T07:39:42.141Z,25.65
2018-09-04T07:42:09.670Z,26.08
2018-09-04T07:44:37.186Z,26.49
2018-09-04T07:47:04.978Z,26.36
2018-09-04T07:49:32.467Z,26.87
2018-09-04T07:51:59.968Z,26.92
2018-09-04T07:54:27.518Z,27.01
2018-09-04T07:56:55.137Z,27.62
2018-09-04T07:59:22.639Z,28.00
2018-09-04T08:01:50.129Z,28.97
2018-09-04T08:04:17.748Z,29.35
2018-09-04T08:06:45.255Z,29.27
2018-09-04T08:09:12.770Z,29.67
2018-09-04T08:11:40.300Z,29.63
2018-09-04T08:14:07.798Z,28.94
2018-09-04T08:16:35.878Z,29.03
2018-09-04T08:19:03.403Z,28.75
2018-09-04T08:21:34.397Z,29.40
2018-09-04T08:24:02.331Z,29.45
2018-09-04T08:26:29.836Z,29.80
2018-09-04T08:28:57.382Z,29.91
2018-09-04T08:31:24.915Z,29.92
2018-09-04T08:33:52.452Z,29.54
2018-09-04T08:36:19.968Z,29.88
2018-09-04T08:38:48.297Z,30.08
2018-09-04T08:41:15.807Z,30.69
2018-09-04T08:43:43.374Z,30.73
2018-09-04T08:46:10.912Z,30.41
2018-09-04T08:48:38.448Z,30.36
2018-09-04T08:51:06.049Z,30.18
2018-09-04T08:53:33.723Z,28.45
2018-09-04T08:56:01.206Z,26.29
2018-09-04T09:01:25.564Z,24.81
2018-09-04T09:03:53.238Z,25.19
2018-09-04T09:06:20.722Z,25.00
2018-09-04T09:08:48.391Z,25.28
2018-09-04T09:11:15.959Z,24.91
2018-09-04T09:13:43.514Z,24.79
2018-09-04T09:16:11.119Z,24.43
2018-09-04T09:18:38.637Z,24.27
2018-09-04T09:21:06.158Z,24.45
2018-09-04T09:23:33.708Z,24.58
2018-09-04T09:26:01.273Z,24.34
2018-09-04T09:28:28.814Z,23.95
2018-09-04T09:30:56.522Z,23.24
2018-09-04T09:33:24.073Z,23.21
2018-09-04T09:35:51.713Z,23.35
2018-09-04T09:38:19.331Z,23.40
2018-09-04T09:40:46.892Z,23.45
2018-09-04T09:43:14.466Z,23.63
2018-09-04T09:45:42.034Z,24.78
2018-09-04T09:48:09.651Z,26.14
2018-09-04T09:50:37.216Z,27.22
2018-09-04T09:53:04.921Z,28.02
2018-09-04T09:55:32.394Z,28.16
2018-09-04T09:57:59.961Z,28.62
2018-09-04T10:00:33.209Z,28.93
2018-09-04T10:03:08.436Z,28.88
2018-09-04T10:05:36.086Z,29.06
2018-09-04T10:08:03.725Z,28.62
2018-09-04T10:10:31.200Z,29.08
2018-09-04T10:12:58.743Z,28.09
2018-09-04T10:15:26.371Z,27.05
2018-09-04T10:17:54.313Z,26.93
2018-09-04T10:20:21.870Z,27.46
2018-09-04T10:22:49.463Z,28.23
2018-09-04T10:25:17.014Z,28.79
2018-09-04T10:27:44.556Z,28.41
2018-09-04T10:30:13.762Z,28.42
2018-09-04T10:32:50.109Z,27.96
2018-09-04T10:35:17.879Z,27.56
2018-09-04T10:37:45.439Z,26.82
2018-09-04T10:40:18.462Z,27.25
2018-09-04T10:42:46.011Z,26.93
2018-09-04T10:45:19.352Z,26.38
2018-09-04T10:47:46.952Z,27.13
2018-09-04T10:50:14.494Z,27.91
2018-09-04T10:52:42.014Z,27.83
2018-09-04T10:55:09.638Z,28.88
2018-09-04T10:57:37.229Z,27.91
2018-09-04T11:00:04.961Z,28.01
2018-09-04T11:02:32.551Z,28.25
2018-09-04T11:05:00.214Z,27.77
2018-09-04T11:07:27.744Z,27.51
2018-09-04T11:09:55.453Z,27.47
2018-09-04T11:12:23.138Z,26.77
2018-09-04T11:14:50.742Z,26.99
2018-09-04T11:17:18.326Z,26.91
2018-09-04T11:19:45.910Z,26.62
2018-09-04T11:22:13.505Z,26.74
2018-09-04T11:24:41.034Z,26.64
2018-09-04T11:27:08.574Z,26.29
2018-09-04T11:29:36.163Z,25.69
2018-09-04T11:32:03.746Z,25.45
2018-09-04T11:34:31.626Z,25.42
2018-09-04T11:36:59.198Z,25.33
2018-09-04T11:39:26.738Z,25.37
2018-09-04T11:41:54.258Z,25.77
2018-09-04T11:44:21.812Z,25.47
2018-09-04T11:46:49.440Z,25.01
2018-09-04T11:49:16.990Z,24.87
2018-09-04T11:51:44.642Z,24.81
2018-09-04T11:54:12.223Z,24.79
2018-09-04T11:56:40.462Z,24.91
2018-09-04T11:59:08.258Z,24.86
2018-09-04T12:01:37.410Z,24.72
2018-09-04T12:04:05.198Z,24.46
2018-09-04T12:06:32.756Z,24.47
2018-09-04T12:09:00.325Z,24.57
2018-09-04T12:11:27.875Z,24.43
2018-09-04T12:13:55.427Z,24.12
2018-09-04T12:16:22.978Z,23.90
2018-09-04T12:18:50.539Z,24.15
2018-09-04T12:21:18.211Z,24.27
2018-09-04T12:23:45.711Z,24.07
2018-09-04T12:26:13.230Z,23.88
2018-09-04T12:28:40.747Z,23.88
2018-09-04T12:31:08.794Z,24.17
2018-09-04T12:33:36.290Z,24.12
2018-09-04T12:36:04.153Z,24.39
2018-09-04T12:38:34.088Z,24.58
2018-09-04T12:41:06.661Z,24.44
2018-09-04T12:43:35.459Z,24.62
2018-09-04T12:46:02.923Z,24.50
2018-09-04T12:48:31.096Z,24.33
2018-09-04T12:50:59.748Z,24.00
2018-09-04T12:53:27.970Z,23.90
2018-09-04T12:55:55.542Z,23.60
2018-09-04T12:58:23.046Z,23.35
2018-09-04T13:00:51.776Z,23.61
2018-09-04T13:03:21.635Z,23.51
2018-09-04T13:05:49.207Z,23.56
2018-09-04T13:08:17.850Z,23.55
2018-09-04T13:10:45.426Z,23.46
2018-09-04T13:13:12.966Z,23.55
2018-09-04T13:15:42.558Z,23.56
2018-09-04T13:18:10.062Z,23.70
2018-09-04T13:20:37.534Z,23.69
2018-09-04T13:23:05.276Z,23.50
2018-09-04T13:25:32.751Z,23.61
2018-09-04T13:28:00.266Z,23.75
2018-09-04T13:30:27.875Z,23.69
2018-09-04T13:32:55.430Z,23.60
2018-09-04T13:35:22.945Z,23.74
2018-09-04T13:37:50.485Z,23.71
2018-09-04T13:40:18.063Z,23.75
2018-09-04T13:42:45.663Z,23.70
2018-09-04T13:45:13.227Z,23.61
2018-09-04T13:47:40.814Z,23.54
2018-09-04T13:50:08.424Z,23.51
2018-09-04T13:52:35.957Z,23.54
2018-09-04T13:55:03.511Z,23.45
2018-09-04T13:57:31.011Z,23.42
2018-09-04T13:59:58.525Z,23.32
2018-09-04T14:02:26.326Z,23.35
2018-09-04T14:04:53.843Z,23.41
2018-09-04T14:07:21.665Z,23.44
2018-09-04T14:09:49.172Z,23.36
2018-09-04T14:12:16.659Z,23.08
2018-09-04T14:14:44.161Z,23.18
2018-09-04T14:17:14.686Z,23.06
2018-09-04T14:19:42.187Z,22.91
2018-09-04T14:22:09.685Z,22.84
2018-09-04T14:24:37.206Z,22.90
2018-09-04T14:27:04.841Z,22.87
2018-09-04T14:32:00.307Z,23.20
2018-09-04T14:34:27.898Z,23.44
2018-09-04T14:36:55.655Z,23.37
2018-09-04T14:39:23.223Z,23.41
2018-09-04T14:41:50.750Z,23.49
2018-09-04T14:44:18.300Z,23.44
2018-09-04T14:46:46.236Z,23.23
2018-09-04T14:49:14.456Z,23.06
2018-09-04T14:51:42.300Z,22.87
2018-09-04T14:56:07.487Z,22.71
2018-09-04T14:58:35.100Z,22.65
2018-09-04T15:01:02.645Z,22.63
2018-09-04T15:03:30.192Z,22.52
2018-09-04T15:05:57.748Z,22.53
2018-09-04T15:08:25.208Z,22.51
2018-09-04T15:10:52.726Z,22.50
2018-09-04T15:13:20.255Z,22.44
2018-09-04T15:15:47.895Z,22.53
2018-09-04T15:18:15.342Z,22.54
2018-09-04T15:20:43.225Z,22.34
2018-09-04T15:23:10.809Z,22.32
2018-09-04T15:25:38.571Z,22.23
2018-09-04T15:28:06.074Z,22.21
2018-09-04T15:30:33.571Z,22.17
2018-09-04T15:33:01.354Z,22.16
2018-09-04T15:35:28.906Z,22.13
2018-09-04T15:37:56.440Z,22.22
2018-09-04T15:40:23.911Z,22.16
2018-09-04T15:42:51.496Z,22.39
2018-09-04T15:45:19.331Z,22.24
2018-09-04T15:47:46.945Z,22.11
2018-09-04T15:50:14.454Z,22.08
2018-09-04T15:52:41.967Z,22.11
2018-09-04T15:55:09.769Z,22.05
2018-09-04T15:57:37.264Z,21.92
2018-09-04T16:00:04.830Z,21.88
2018-09-04T16:02:32.470Z,21.96
2018-09-04T16:04:59.972Z,21.94
2018-09-04T16:07:27.439Z,21.88
2018-09-04T16:09:56.199Z,21.97
2018-09-04T16:12:23.632Z,21.91
2018-09-04T16:14:51.355Z,22.04
2018-09-04T16:17:18.880Z,21.98
2018-09-04T16:19:47.028Z,21.87
2018-09-04T16:22:15.631Z,21.82
2018-09-04T16:24:43.246Z,21.84
2018-09-04T16:27:10.895Z,21.84
2018-09-04T16:29:38.863Z,21.89
2018-09-04T16:32:06.855Z,21.97
2018-09-04T16:34:34.636Z,21.99
2018-09-04T16:37:02.260Z,21.84
2018-09-04T16:39:30.812Z,21.79
2018-09-04T16:41:58.338Z,21.79
2018-09-04T16:44:25.863Z,21.68
2018-09-04T16:46:53.391Z,21.77
2018-09-04T16:49:24.776Z,21.75
2018-09-04T16:51:52.277Z,21.85
2018-09-04T16:54:20.863Z,21.66
2018-09-04T16:56:48.395Z,21.57
2018-09-04T16:59:15.908Z,21.65
2018-09-04T17:01:43.817Z,21.49
2018-09-04T17:04:11.327Z,21.38
2018-09-04T17:06:38.851Z,21.48
2018-09-04T17:09:06.834Z,21.36
2018-09-04T17:11:34.476Z,21.40
2018-09-04T17:14:01.975Z,21.34
2018-09-04T17:16:29.529Z,21.40
2018-09-04T17:18:57.088Z,21.36
2018-09-04T17:21:24.589Z,21.14
2018-09-04T17:23:52.081Z,21.11
2018-09-04T17:26:19.586Z,21.09
2018-09-04T17:28:47.151Z,21.05
2018-09-04T17:31:14.707Z,20.84
2018-09-04T17:33:42.267Z,20.87
2018-09-04T17:36:09.798Z,20.71
2018-09-04T17:38:37.307Z,20.64
2018-09-04T17:41:04.856Z,20.60
2018-09-04T17:43:32.454Z,20.47
2018-09-04T17:46:00.031Z,20.36
2018-09-04T17:48:27.583Z,20.22
2018-09-04T17:50:55.122Z,20.11
2018-09-04T17:53:22.626Z,20.20
2018-09-04T17:55:50.127Z,20.05
2018-09-04T17:58:17.926Z,20.01
2018-09-04T18:00:45.485Z,19.97
2018-09-04T18:03:13.111Z,19.97
2018-09-04T18:05:40.789Z,19.90
2018-09-04T18:08:08.320Z,19.93
2018-09-04T18:10:35.999Z,19.89
2018-09-04T18:13:03.495Z,19.86
2018-09-04T18:15:31.000Z,19.85
2018-09-04T18:17:59.531Z,19.67
2018-09-04T18:20:27.092Z,19.67
2018-09-04T18:22:54.611Z,19.80
2018-09-04T18:25:22.210Z,19.64
2018-09-04T18:27:49.721Z,19.54
2018-09-04T18:30:17.801Z,19.42
2018-09-04T18:32:45.320Z,19.49
2018-09-04T18:35:12.838Z,19.74
2018-09-04T18:37:40.360Z,19.68
2018-09-04T18:40:07.871Z,19.56
2018-09-04T18:42:35.438Z,19.46
2018-09-04T18:45:03.041Z,19.31
2018-09-04T18:47:30.600Z,18.96
2018-09-04T18:49:58.142Z,19.01
2018-09-04T18:52:25.706Z,18.75
2018-09-04T18:54:53.225Z,18.65
2018-09-04T18:57:20.738Z,18.74
2018-09-04T18:59:48.314Z,18.67
2018-09-04T19:02:15.891Z,18.38
2018-09-04T19:04:43.414Z,18.29
2018-09-04T19:07:10.953Z,18.32
2018-09-04T19:09:38.487Z,18.20
2018-09-04T19:12:06.098Z,18.00
2018-09-04T19:14:33.692Z,18.05
2018-09-04T19:17:01.256Z,18.03
2018-09-04T19:19:28.949Z,17.76
2018-09-04T19:21:56.512Z,17.65
2018-09-04T19:24:24.146Z,17.53
2018-09-04T19:26:51.680Z,17.58
2018-09-04T19:29:19.198Z,17.58
2018-09-04T19:31:46.785Z,17.67
2018-09-04T19:34:14.357Z,17.76
2018-09-04T19:36:41.871Z,17.72
2018-09-04T19:39:10.038Z,17.55
2018-09-04T19:41:37.810Z,17.44
2018-09-04T19:44:05.382Z,17.38
2018-09-04T19:46:32.936Z,17.54
2018-09-04T19:49:00.515Z,17.60
2018-09-04T19:51:27.985Z,17.55
2018-09-04T19:53:55.462Z,17.18
2018-09-04T19:56:23.067Z,17.21
2018-09-04T19:58:50.659Z,17.01
2018-09-04T20:01:18.231Z,16.92
2018-09-04T20:03:45.799Z,16.87
2018-09-04T20:06:13.419Z,16.69
2018-09-04T20:08:41.114Z,16.85
2018-09-04T20:11:08.640Z,16.73
2018-09-04T20:13:36.136Z,16.72
2018-09-04T20:16:03.708Z,16.80
2018-09-04T20:18:31.227Z,16.72
2018-09-04T20:20:58.756Z,16.49
2018-09-04T20:23:26.332Z,16.46
2018-09-04T20:25:53.823Z,16.46
2018-09-04T20:28:21.554Z,16.41
2018-09-04T20:30:49.119Z,16.32
2018-09-04T20:33:16.640Z,16.20
2018-09-04T20:35:44.230Z,16.27
2018-09-04T20:38:11.758Z,16.27
2018-09-04T20:40:39.250Z,16.19
2018-09-04T20:43:06.873Z,16.22
2018-09-04T20:45:34.426Z,16.23
2018-09-04T20:48:01.932Z,16.26
2018-09-04T20:50:29.481Z,16.26
2018-09-04T20:52:56.990Z,16.20
2018-09-04T20:55:24.572Z,16.05
2018-09-04T20:57:57.877Z,16.01
2018-09-04T21:00:31.136Z,16.03
2018-09-04T21:03:04.291Z,15.94
2018-09-04T21:05:37.407Z,15.90
2018-09-04T21:08:15.042Z,15.84
2018-09-04T21:10:42.972Z,15.88
2018-09-04T21:13:11.360Z,15.70
2018-09-04T21:15:38.988Z,15.63
2018-09-04T21:18:06.646Z,15.66
2018-09-04T21:20:34.151Z,15.93
2018-09-04T21:23:01.732Z,15.93
2018-09-04T21:25:29.338Z,15.88
2018-09-04T21:27:56.867Z,15.88
2018-09-04T21:30:24.463Z,15.88
2018-09-04T21:32:51.982Z,15.88
2018-09-04T21:35:19.774Z,15.82
2018-09-04T21:37:47.361Z,15.85
2018-09-04T21:40:14.858Z,15.93
2018-09-04T21:42:42.596Z,15.84
2018-09-04T21:45:10.127Z,15.81
2018-09-04T21:47:37.649Z,15.95
2018-09-04T21:50:05.526Z,15.97
2018-09-04T21:52:33.029Z,15.89
2018-09-04T21:55:00.552Z,15.88
2018-09-04T21:57:28.027Z,15.96
2018-09-04T21:59:55.574Z,15.93
2018-09-04T22:02:23.106Z,15.92
2018-09-04T22:04:50.770Z,15.88
2018-09-04T22:07:18.274Z,15.78
2018-09-04T22:09:45.767Z,15.77
2018-09-04T22:12:13.275Z,15.80
2018-09-04T22:14:41.074Z,15.77
2018-09-04T22:17:08.596Z,15.74
2018-09-04T22:19:36.126Z,15.64
2018-09-04T22:22:03.714Z,15.63
2018-09-04T22:24:33.646Z,15.61
2018-09-04T22:27:04.066Z,15.68
2018-09-04T22:29:32.048Z,15.66
2018-09-04T22:31:59.685Z,15.61
2018-09-04T22:34:27.230Z,15.54
2018-09-04T22:36:54.690Z,15.44
2018-09-04T22:39:22.262Z,15.37
2018-09-04T22:41:49.742Z,15.34
2018-09-04T22:44:17.321Z,15.36
2018-09-04T22:46:44.820Z,15.29
2018-09-04T22:49:12.350Z,15.26
2018-09-04T22:51:39.826Z,15.26
2018-09-04T22:54:07.649Z,15.34
2018-09-04T22:56:35.811Z,15.36
2018-09-04T22:59:03.436Z,15.33
2018-09-04T23:01:31.422Z,15.38
2018-09-04T23:03:58.926Z,15.29
2018-09-04T23:06:26.429Z,15.32
2018-09-04T23:08:53.935Z,15.41
2018-09-04T23:11:21.419Z,15.35
2018-09-04T23:13:49.263Z,15.46
2018-09-04T23:16:16.770Z,15.39
2018-09-04T23:18:44.290Z,15.42
2018-09-04T23:21:11.810Z,15.35
2018-09-04T23:23:39.290Z,15.36
2018-09-04T23:26:06.790Z,15.26
2018-09-04T23:28:34.275Z,15.18
2018-09-04T23:31:01.774Z,15.13
2018-09-04T23:33:30.284Z,15.23
2018-09-04T23:35:58.614Z,15.31
2018-09-04T23:38:26.140Z,15.25
2018-09-04T23:40:53.643Z,15.33
2018-09-04T23:43:21.113Z,15.31
2018-09-04T23:45:48.625Z,15.23
2018-09-04T23:48:16.222Z,15.21
2018-09-04T23:50:43.765Z,15.21
2018-09-04T23:53:11.231Z,15.17
2018-09-04T23:55:38.771Z,15.15
2018-09-04T23:58:06.365Z,15.20
